createdAt,value
2019-05-15T00:01:19.335Z,6.02
2019-05-15T00:03:49.993Z,5.99
2019-05-15T00:06:19.188Z,5.90
2019-05-15T00:08:50.037Z,5.87
2019-05-15T00:11:19.433Z,5.76
2019-05-15T00:13:48.420Z,5.67
2019-05-15T00:16:18.645Z,5.59
2019-05-15T00:18:48.210Z,5.63
2019-05-15T00:21:18.156Z,5.58
2019-05-15T00:23:49.404Z,5.45
2019-05-15T00:26:18.267Z,5.39
2019-05-15T00:28:47.969Z,5.35
2019-05-15T00:31:18.587Z,5.37
2019-05-15T00:33:48.412Z,5.33
2019-05-15T00:36:19.212Z,5.31
2019-05-15T00:38:48.878Z,5.18
2019-05-15T00:41:50.794Z,5.18
2019-05-15T00:44:28.053Z,5.08
2019-05-15T00:47:39.608Z,5.04
2019-05-15T00:50:29.281Z,4.94
2019-05-15T00:59:24.030Z,4.74
2019-05-15T01:02:03.400Z,4.62
2019-05-15T01:04:32.514Z,4.61
2019-05-15T01:07:01.189Z,4.61
2019-05-15T01:09:30.212Z,4.57
2019-05-15T01:11:59.711Z,4.58
2019-05-15T01:14:28.680Z,4.57
2019-05-15T01:17:10.326Z,4.52
2019-05-15T01:19:59.402Z,4.49
2019-05-15T01:22:48.644Z,4.44
2019-05-15T01:25:38.977Z,4.42
2019-05-15T01:28:28.874Z,4.39
2019-05-15T01:31:19.132Z,4.25
2019-05-15T01:36:38.407Z,4.26
2019-05-15T01:39:26.361Z,4.29
2019-05-15T01:42:35.075Z,4.25
2019-05-15T01:45:23.320Z,4.17
2019-05-15T01:47:52.417Z,3.98
2019-05-15T01:50:40.688Z,4.08
2019-05-15T01:53:09.825Z,4.07
2019-05-15T01:55:39.413Z,4.08
2019-05-15T01:58:09.476Z,4.07
2019-05-15T02:00:40.079Z,4.02
2019-05-15T02:06:19.137Z,4.00
2019-05-15T02:09:29.036Z,4.00
2019-05-15T02:12:38.738Z,4.00
2019-05-15T02:20:40.790Z,4.01
2019-05-15T02:26:04.378Z,3.83
2019-05-15T02:28:33.465Z,3.86
2019-05-15T02:31:02.984Z,3.80
2019-05-15T02:33:32.522Z,3.70
2019-05-15T02:36:01.696Z,3.76
2019-05-15T02:38:30.410Z,3.79
2019-05-15T02:44:10.889Z,3.59
2019-05-15T02:47:19.877Z,3.74
2019-05-15T02:52:45.768Z,3.38
2019-05-15T02:55:16.228Z,3.39
2019-05-15T02:57:44.819Z,3.32
2019-05-15T03:00:35.268Z,3.34
2019-05-15T03:02:45.081Z,3.30
2019-05-15T03:05:13.807Z,3.25
2019-05-15T03:07:43.009Z,3.19
2019-05-15T03:10:51.894Z,3.10
2019-05-15T03:13:20.535Z,3.07
2019-05-15T03:15:49.327Z,3.02
2019-05-15T03:18:19.406Z,2.98
2019-05-15T03:20:50.083Z,2.89
2019-05-15T03:23:40.516Z,2.84
2019-05-15T03:26:10.156Z,2.87
2019-05-15T03:28:39.767Z,2.90
2019-05-15T03:31:32.300Z,2.94
2019-05-15T03:33:45.915Z,2.89
2019-05-15T03:36:14.009Z,2.95
2019-05-15T03:41:53.597Z,2.89
2019-05-15T03:44:23.169Z,2.87
2019-05-15T03:46:51.802Z,2.90
2019-05-15T03:49:20.974Z,2.84
2019-05-15T03:51:50.388Z,2.86
2019-05-15T03:54:19.332Z,2.84
2019-05-15T03:56:50.267Z,2.84
2019-05-15T03:59:20.937Z,2.76
2019-05-15T04:01:49.860Z,2.73
2019-05-15T04:04:39.915Z,2.67
2019-05-15T04:07:09.411Z,2.68
2019-05-15T04:09:58.882Z,2.62
2019-05-15T04:12:29.021Z,2.62
2019-05-15T04:20:22.205Z,2.63
2019-05-15T04:22:51.001Z,2.68
2019-05-15T04:25:19.739Z,2.70
2019-05-15T04:28:10.136Z,2.76
2019-05-15T04:30:40.285Z,2.80
2019-05-15T04:33:10.045Z,2.73
2019-05-15T04:38:59.792Z,2.72
2019-05-15T04:41:30.108Z,2.74
2019-05-15T04:43:59.728Z,2.69
2019-05-15T04:52:10.109Z,2.84
2019-05-15T04:54:40.198Z,3.09
2019-05-15T04:57:09.278Z,3.50
2019-05-15T04:59:39.125Z,3.42
2019-05-15T05:02:17.445Z,3.56
2019-05-15T05:04:39.145Z,3.47
2019-05-15T05:07:09.450Z,3.44
2019-05-15T05:09:59.634Z,3.51
2019-05-15T05:15:39.049Z,3.44
2019-05-15T05:18:09.643Z,3.53
2019-05-15T05:20:38.327Z,3.70
2019-05-15T05:23:08.559Z,4.06
2019-05-15T05:25:38.801Z,4.19
2019-05-15T05:28:08.717Z,4.32
2019-05-15T05:30:38.655Z,4.35
2019-05-15T05:33:08.654Z,4.44
2019-05-15T05:35:38.694Z,4.53
2019-05-15T05:38:07.912Z,4.66
2019-05-15T05:40:38.542Z,4.68
2019-05-15T05:43:09.472Z,4.76
2019-05-15T05:45:38.856Z,4.82
2019-05-15T05:48:08.807Z,4.88
2019-05-15T05:51:19.057Z,4.88
2019-05-15T05:53:48.144Z,5.01
2019-05-15T05:56:18.122Z,5.04
2019-05-15T05:58:49.204Z,5.14
2019-05-15T06:01:18.777Z,5.24
2019-05-15T06:03:49.057Z,5.25
2019-05-15T06:06:18.713Z,5.11
2019-05-15T06:08:48.589Z,5.06
2019-05-15T06:11:18.453Z,5.14
2019-05-15T06:13:51.905Z,5.32
2019-05-15T06:16:19.022Z,5.39
2019-05-15T06:18:49.176Z,5.68
2019-05-15T06:21:18.785Z,5.78
2019-05-15T06:23:54.803Z,5.92
2019-05-15T06:26:19.710Z,6.11
2019-05-15T06:28:48.962Z,6.29
2019-05-15T06:31:18.972Z,6.34
2019-05-15T06:33:49.032Z,6.32
2019-05-15T06:36:18.523Z,6.44
2019-05-15T06:38:48.339Z,6.60
2019-05-15T06:41:18.169Z,6.71
2019-05-15T06:44:28.091Z,6.77
2019-05-15T06:46:58.718Z,6.89
2019-05-15T06:49:28.699Z,7.55
2019-05-15T06:51:58.668Z,9.11
2019-05-15T06:54:28.429Z,10.94
2019-05-15T06:56:58.370Z,12.04
2019-05-15T07:00:08.450Z,12.81
2019-05-15T07:02:38.540Z,13.84
2019-05-15T07:05:08.683Z,14.63
2019-05-15T07:07:38.705Z,14.86
2019-05-15T07:10:09.099Z,15.02
2019-05-15T07:12:39.075Z,14.95
2019-05-15T07:15:49.386Z,15.54
2019-05-15T07:18:19.746Z,16.27
2019-05-15T07:21:28.720Z,16.39
2019-05-15T07:23:58.400Z,16.79
2019-05-15T07:26:29.061Z,16.87
2019-05-15T07:28:59.534Z,17.12
2019-05-15T07:31:29.004Z,17.50
2019-05-15T07:33:59.867Z,16.71
2019-05-15T07:36:28.751Z,16.31
2019-05-15T07:38:58.401Z,16.34
2019-05-15T07:41:28.411Z,16.84
2019-05-15T07:43:58.612Z,16.77
2019-05-15T07:46:28.833Z,17.29
2019-05-15T07:48:58.473Z,16.91
2019-05-15T07:51:28.754Z,15.89
2019-05-15T07:53:58.329Z,15.78
2019-05-15T07:56:28.950Z,15.95
2019-05-15T07:58:58.676Z,16.31
2019-05-15T08:01:29.182Z,16.34
2019-05-15T08:04:14.510Z,16.87
2019-05-15T08:06:29.611Z,17.17
2019-05-15T08:08:59.230Z,17.60
2019-05-15T08:11:28.765Z,17.59
2019-05-15T08:13:58.211Z,16.89
2019-05-15T08:16:28.691Z,16.63
2019-05-15T08:18:58.114Z,15.81
2019-05-15T08:21:29.071Z,15.97
2019-05-15T08:23:59.090Z,16.07
2019-05-15T08:26:28.315Z,16.02
2019-05-15T08:28:58.058Z,15.48
2019-05-15T08:31:28.830Z,14.12
2019-05-15T08:34:12.342Z,14.04
2019-05-15T08:39:22.392Z,13.39
2019-05-15T08:41:51.055Z,13.44
2019-05-15T08:44:19.698Z,13.37
2019-05-15T08:46:48.384Z,13.58
2019-05-15T08:49:19.858Z,13.35
2019-05-15T08:51:48.632Z,13.33
2019-05-15T08:54:18.361Z,13.32
2019-05-15T08:56:48.553Z,13.46
2019-05-15T08:59:18.908Z,13.57
2019-05-15T09:01:49.144Z,13.17
2019-05-15T09:04:29.724Z,13.10
2019-05-15T09:06:49.656Z,12.94
2019-05-15T09:09:58.352Z,12.75
2019-05-15T09:12:29.238Z,12.75
2019-05-15T09:14:58.205Z,13.08
2019-05-15T09:17:28.598Z,13.31
2019-05-15T09:19:58.841Z,13.35
2019-05-15T09:22:29.123Z,13.60
2019-05-15T09:24:59.122Z,14.05
2019-05-15T09:27:27.969Z,14.16
2019-05-15T09:29:59.013Z,14.13
2019-05-15T09:32:28.520Z,14.21
2019-05-15T09:34:59.275Z,14.31
2019-05-15T09:37:28.704Z,14.42
2019-05-15T09:39:58.464Z,14.07
2019-05-15T09:42:28.725Z,14.44
2019-05-15T09:51:09.024Z,14.15
2019-05-15T09:53:39.420Z,13.84
2019-05-15T09:56:08.075Z,13.54
2019-05-15T09:58:38.305Z,13.35
2019-05-15T10:01:08.701Z,13.67
2019-05-15T10:03:40.357Z,14.36
2019-05-15T10:11:58.467Z,13.77
2019-05-15T10:15:11.381Z,13.47
2019-05-15T10:17:37.314Z,13.52
2019-05-15T10:20:45.775Z,14.34
2019-05-15T10:23:14.449Z,14.38
2019-05-15T10:25:43.082Z,13.92
2019-05-15T10:28:15.109Z,14.12
2019-05-15T10:30:42.103Z,14.19
2019-05-15T10:33:10.801Z,13.71
2019-05-15T10:35:39.515Z,13.25
2019-05-15T10:38:08.946Z,13.22
2019-05-15T10:40:39.517Z,13.34
2019-05-15T10:43:09.319Z,13.65
2019-05-15T10:45:42.365Z,13.44
2019-05-15T10:48:09.727Z,13.29
2019-05-15T10:50:38.948Z,13.36
2019-05-15T10:53:11.226Z,13.56
2019-05-15T10:55:39.679Z,13.77
2019-05-15T10:58:16.731Z,13.90
2019-05-15T11:00:39.900Z,14.37
2019-05-15T11:03:08.978Z,14.57
2019-05-15T11:05:45.428Z,14.58
2019-05-15T11:08:09.320Z,15.44
2019-05-15T11:10:41.739Z,16.11
2019-05-15T11:13:08.981Z,16.22
2019-05-15T11:15:42.330Z,16.30
2019-05-15T11:18:09.419Z,15.70
2019-05-15T11:20:41.341Z,15.73
2019-05-15T11:25:59.133Z,16.07
2019-05-15T11:28:31.800Z,16.90
2019-05-15T11:30:59.449Z,17.56
2019-05-15T11:33:29.397Z,16.37
2019-05-15T11:36:05.555Z,14.99
2019-05-15T11:38:29.407Z,14.87
2019-05-15T11:40:58.130Z,14.70
2019-05-15T11:43:29.187Z,14.80
2019-05-15T11:45:58.824Z,15.29
2019-05-15T11:48:29.846Z,15.54
2019-05-15T11:50:57.968Z,14.92
2019-05-15T11:53:28.383Z,14.93
2019-05-15T11:55:59.640Z,15.64
2019-05-15T11:58:28.174Z,15.78
2019-05-15T12:01:19.199Z,14.79
2019-05-15T12:03:47.485Z,14.42
2019-05-15T12:06:22.453Z,14.35
2019-05-15T12:08:46.540Z,14.36
2019-05-15T12:11:30.784Z,14.63
2019-05-15T12:13:45.561Z,15.35
2019-05-15T12:16:14.252Z,15.26
2019-05-15T12:18:42.884Z,15.07
2019-05-15T12:21:11.572Z,14.64
2019-05-15T12:23:40.263Z,14.35
2019-05-15T12:26:09.260Z,13.91
2019-05-15T12:28:40.674Z,13.85
2019-05-15T12:31:09.690Z,14.00
2019-05-15T12:33:38.658Z,14.07
2019-05-15T12:36:10.729Z,14.19
2019-05-15T12:38:39.855Z,14.16
2019-05-15T13:01:16.861Z,14.53
2019-05-15T13:03:42.941Z,14.75
2019-05-15T13:06:11.476Z,14.65
2019-05-15T13:08:40.055Z,14.86
2019-05-15T13:11:14.342Z,15.60
2019-05-15T13:13:39.109Z,16.30
2019-05-15T13:16:07.815Z,16.34
2019-05-15T13:18:38.635Z,16.18
2019-05-15T13:21:06.832Z,15.61
2019-05-15T13:23:35.479Z,15.40
2019-05-15T13:26:04.160Z,15.58
2019-05-15T13:28:32.809Z,16.02
2019-05-15T13:31:01.448Z,16.17
2019-05-15T13:33:30.223Z,15.36
2019-05-15T13:35:58.899Z,15.10
2019-05-15T13:38:28.811Z,14.67
2019-05-15T13:40:58.979Z,14.41
2019-05-15T13:43:28.974Z,14.86
2019-05-15T13:46:38.524Z,15.93
2019-05-15T13:49:08.275Z,16.51
2019-05-15T13:51:38.402Z,17.03
2019-05-15T13:54:08.657Z,17.17
2019-05-15T13:56:38.324Z,16.77
2019-05-15T13:59:08.046Z,15.91
2019-05-15T14:01:39.346Z,15.78
2019-05-15T14:04:08.605Z,15.67
2019-05-15T14:06:38.221Z,16.25
2019-05-15T14:12:20.879Z,17.07
2019-05-15T14:14:49.459Z,16.61
2019-05-15T14:17:18.148Z,15.74
2019-05-15T14:19:48.635Z,15.36
2019-05-15T14:22:17.176Z,15.32
2019-05-15T14:24:45.822Z,15.20
2019-05-15T14:27:14.506Z,15.34
2019-05-15T14:29:43.155Z,15.48
2019-05-15T14:32:11.770Z,15.01
2019-05-15T14:34:40.386Z,14.78
2019-05-15T14:37:09.033Z,14.92
2019-05-15T14:39:38.090Z,15.24
2019-05-15T14:42:09.130Z,15.07
2019-05-15T14:44:38.653Z,14.76
2019-05-15T14:47:08.806Z,14.44
2019-05-15T14:49:44.295Z,14.54
2019-05-15T14:52:09.456Z,14.64
2019-05-15T14:54:38.802Z,14.47
2019-05-15T14:57:08.708Z,14.49
2019-05-15T14:59:38.264Z,14.34
2019-05-15T15:02:09.067Z,14.47
2019-05-15T15:04:39.251Z,14.36
2019-05-15T15:07:08.970Z,14.18
2019-05-15T15:09:37.616Z,14.28
2019-05-15T15:12:08.149Z,14.13
2019-05-15T15:14:37.875Z,14.23
2019-05-15T15:17:07.144Z,14.52
2019-05-15T15:19:38.700Z,14.74
2019-05-15T15:22:08.519Z,14.72
2019-05-15T15:25:16.388Z,14.60
2019-05-15T15:27:45.065Z,14.54
2019-05-15T15:30:53.470Z,14.17
2019-05-15T15:33:22.096Z,14.69
2019-05-15T15:35:50.655Z,14.65
2019-05-15T15:38:36.724Z,14.37
2019-05-15T15:40:49.745Z,14.18
2019-05-15T15:43:20.102Z,14.81
2019-05-15T15:45:48.784Z,15.34
2019-05-15T15:48:19.235Z,15.15
2019-05-15T15:50:48.810Z,15.22
2019-05-15T15:53:19.107Z,15.36
2019-05-15T15:55:49.013Z,15.64
2019-05-15T15:58:19.996Z,15.41
2019-05-15T16:00:49.371Z,15.38
2019-05-15T16:03:19.376Z,14.92
2019-05-15T16:05:48.852Z,14.70
2019-05-15T16:08:19.114Z,14.74
2019-05-15T16:10:49.190Z,14.74
2019-05-15T16:13:19.564Z,14.83
2019-05-15T16:15:48.737Z,15.22
2019-05-15T16:18:18.547Z,15.29
2019-05-15T16:20:48.584Z,15.39
2019-05-15T16:23:38.602Z,15.30
2019-05-15T16:26:09.263Z,15.51
2019-05-15T16:28:38.854Z,15.55
2019-05-15T16:31:27.898Z,14.96
2019-05-15T16:33:58.619Z,14.64
2019-05-15T16:36:28.044Z,14.81
2019-05-15T16:39:05.220Z,14.76
2019-05-15T16:41:29.036Z,14.59
2019-05-15T16:43:57.835Z,14.76
2019-05-15T16:46:28.230Z,15.01
2019-05-15T16:48:58.564Z,15.13
2019-05-15T16:52:09.211Z,15.14
2019-05-15T16:54:38.739Z,14.94
2019-05-15T16:57:09.285Z,15.02
2019-05-15T16:59:39.033Z,15.00
2019-05-15T17:02:08.751Z,14.94
2019-05-15T17:04:38.439Z,14.84
2019-05-15T17:07:06.977Z,14.87
2019-05-15T17:09:35.624Z,14.85
2019-05-15T17:12:04.471Z,15.00
2019-05-15T17:14:33.099Z,15.16
2019-05-15T17:17:01.796Z,14.93
2019-05-15T17:19:30.431Z,14.52
2019-05-15T17:21:59.140Z,14.17
2019-05-15T17:24:27.826Z,14.22
2019-05-15T17:26:59.298Z,13.96
2019-05-15T17:29:29.044Z,14.13
2019-05-15T17:31:57.213Z,13.79
2019-05-15T17:34:25.848Z,13.70
2019-05-15T17:36:54.484Z,13.71
2019-05-15T17:39:34.735Z,13.58
2019-05-15T17:42:33.361Z,13.29
2019-05-15T17:45:02.117Z,13.08
2019-05-15T17:47:30.657Z,12.59
2019-05-15T17:49:59.326Z,12.31
2019-05-15T17:52:29.692Z,12.19
2019-05-15T17:54:59.245Z,12.12
2019-05-15T17:57:28.772Z,12.04
2019-05-15T17:59:59.047Z,11.88
2019-05-15T18:02:28.587Z,11.76
2019-05-15T18:04:58.739Z,11.78
2019-05-15T18:07:28.642Z,11.84
2019-05-15T18:09:59.115Z,11.90
2019-05-15T18:12:29.258Z,11.78
2019-05-15T18:14:58.373Z,11.76
2019-05-15T18:17:28.504Z,11.70
2019-05-15T18:19:58.116Z,11.69
2019-05-15T18:22:27.567Z,11.62
2019-05-15T18:24:58.124Z,11.57
2019-05-15T18:27:26.529Z,11.46
2019-05-15T18:29:55.085Z,11.39
2019-05-15T18:32:23.744Z,11.20
2019-05-15T18:34:52.399Z,11.11
2019-05-15T18:37:21.110Z,11.05
2019-05-15T18:40:02.263Z,10.98
2019-05-15T18:42:21.866Z,10.98
2019-05-15T18:44:50.583Z,10.91
2019-05-15T18:47:19.276Z,10.90
2019-05-15T18:50:03.715Z,10.89
2019-05-15T18:52:18.372Z,10.87
2019-05-15T18:54:48.046Z,10.72
2019-05-15T18:57:18.612Z,10.66
2019-05-15T18:59:48.700Z,10.63
2019-05-15T19:02:19.170Z,10.63
2019-05-15T19:04:49.074Z,10.45
2019-05-15T19:07:18.264Z,10.36
2019-05-15T19:09:48.036Z,10.34
2019-05-15T19:12:17.947Z,10.31
2019-05-15T19:14:49.441Z,10.30
2019-05-15T19:17:18.792Z,10.34
2019-05-15T19:19:48.552Z,10.15
2019-05-15T19:22:19.258Z,10.28
2019-05-15T19:24:48.504Z,10.15
2019-05-15T19:27:18.760Z,10.29
2019-05-15T19:29:48.496Z,10.24
2019-05-15T19:32:17.691Z,10.16
2019-05-15T19:34:48.350Z,9.93
2019-05-15T19:37:18.460Z,10.03
2019-05-15T19:39:48.416Z,9.95
2019-05-15T19:42:25.037Z,9.82
2019-05-15T19:44:53.741Z,9.88
2019-05-15T19:47:22.431Z,9.82
2019-05-15T19:49:51.033Z,9.76
2019-05-15T19:52:19.771Z,9.73
2019-05-15T19:54:48.625Z,9.70
2019-05-15T19:57:18.908Z,9.57
2019-05-15T19:59:48.834Z,9.49
2019-05-15T20:02:18.091Z,9.46
2019-05-15T20:04:49.121Z,9.32
2019-05-15T20:07:18.619Z,9.22
2019-05-15T20:09:47.892Z,9.17
2019-05-15T20:12:58.277Z,9.04
2019-05-15T20:15:28.571Z,9.07
2019-05-15T20:21:05.450Z,8.91
2019-05-15T20:23:34.128Z,8.82
2019-05-15T20:26:02.716Z,8.71
2019-05-15T20:28:31.270Z,8.53
2019-05-15T20:30:59.878Z,8.48
2019-05-15T20:33:28.747Z,8.42
2019-05-15T20:35:58.890Z,8.45
2019-05-15T20:38:28.570Z,8.41
2019-05-15T20:40:59.789Z,8.46
2019-05-15T20:43:28.552Z,8.53
2019-05-15T20:45:57.728Z,8.50
2019-05-15T20:48:28.868Z,8.54
2019-05-15T20:50:58.987Z,8.61
2019-05-15T20:53:28.831Z,8.44
2019-05-15T20:55:59.043Z,8.53
2019-05-15T20:58:27.616Z,8.67
2019-05-15T21:00:58.834Z,8.55
2019-05-15T21:03:26.721Z,8.49
2019-05-15T21:05:55.297Z,8.58
2019-05-15T21:08:23.871Z,8.59
2019-05-15T21:10:52.526Z,8.60
2019-05-15T21:13:21.096Z,8.61
2019-05-15T21:15:49.780Z,8.48
2019-05-15T21:18:20.159Z,8.58
2019-05-15T21:20:48.833Z,8.56
2019-05-15T21:23:18.302Z,8.52
2019-05-15T21:25:48.436Z,8.60
2019-05-15T21:28:18.289Z,8.62
2019-05-15T21:30:49.279Z,8.65
2019-05-15T21:33:17.753Z,8.55
2019-05-15T21:35:47.846Z,8.56
2019-05-15T21:38:18.369Z,8.56
2019-05-15T21:40:48.000Z,8.63
2019-05-15T21:43:59.285Z,8.62
2019-05-15T21:46:27.408Z,8.59
2019-05-15T21:48:57.748Z,8.60
2019-05-15T21:51:28.162Z,8.65
2019-05-15T21:53:58.167Z,8.62
2019-05-15T21:56:27.997Z,8.57
2019-05-15T21:58:58.135Z,8.61
2019-05-15T22:01:28.703Z,8.50
2019-05-15T22:03:58.927Z,8.55
2019-05-15T22:06:29.379Z,8.64
2019-05-15T22:08:59.266Z,8.56
2019-05-15T22:11:29.599Z,8.43
2019-05-15T22:13:58.811Z,8.41
2019-05-15T22:16:28.978Z,8.37
2019-05-15T22:18:59.120Z,8.43
2019-05-15T22:21:27.766Z,8.43
2019-05-15T22:23:59.956Z,8.40
2019-05-15T22:26:29.086Z,8.31
2019-05-15T22:28:58.408Z,8.23
2019-05-15T22:31:27.686Z,8.46
2019-05-15T22:33:58.378Z,8.36
2019-05-15T22:36:28.080Z,8.40
2019-05-15T22:38:59.402Z,8.25
2019-05-15T22:41:28.441Z,8.25
2019-05-15T22:43:57.806Z,8.34
2019-05-15T22:46:28.861Z,8.23
2019-05-15T22:48:58.972Z,8.33
2019-05-15T22:51:28.907Z,8.30
2019-05-15T22:53:58.088Z,8.33
2019-05-15T22:56:29.711Z,8.20
2019-05-15T22:58:58.498Z,8.30
2019-05-15T23:01:49.283Z,8.13
2019-05-15T23:04:18.203Z,8.14
2019-05-15T23:07:08.044Z,8.11
2019-05-15T23:09:38.416Z,8.13
2019-05-15T23:12:11.391Z,8.05
2019-05-15T23:14:37.942Z,7.92
2019-05-15T23:17:08.274Z,7.88
2019-05-15T23:19:38.567Z,7.84
2019-05-15T23:22:08.567Z,7.90
2019-05-15T23:24:38.699Z,7.74
2019-05-15T23:27:08.854Z,7.68
2019-05-15T23:29:38.492Z,7.76
2019-05-15T23:32:08.195Z,7.89
2019-05-15T23:34:38.590Z,7.88
2019-05-15T23:37:08.272Z,7.78
2019-05-15T23:39:38.048Z,7.86
2019-05-15T23:42:08.900Z,7.83
2019-05-15T23:44:38.381Z,7.88
2019-05-15T23:47:07.031Z,7.88
2019-05-15T23:49:35.590Z,7.80
2019-05-15T23:52:04.353Z,7.85
2019-05-15T23:54:32.989Z,7.74
2019-05-15T23:57:01.649Z,7.77
2019-05-15T23:59:30.342Z,7.76
